Time;durP1;ratioP1;P1;durP2;ratioP2;P2;SDS_P1;SDS_P2;PMS_P1;PMS_P2;Temp;Humidity;BMP_temperature;BMP_pressure;BME280_temperature;BME280_humidity;BME280_pressure;Samples;Min_cycle;Max_cycle;Signal;HPM_P1;HPM_P2
2022/02/22 00:00:41;;;;;;;3.20;1.10;;;5.60;99.90;;;;;;6211186;23;20400;-83
2022/02/22 00:03:07;;;;;;;2.90;1.20;;;5.60;99.90;;;;;;6212158;23;20397;-85
2022/02/22 00:05:38;;;;;;;3.13;1.47;;;5.50;99.90;;;;;;6206641;23;20411;-83
2022/02/22 00:08:04;;;;;;;2.97;1.10;;;5.50;99.90;;;;;;6211067;23;20442;-83
2022/02/22 00:10:30;;;;;;;3.80;1.43;;;5.40;99.90;;;;;;6210555;23;20421;-83
2022/02/22 00:12:56;;;;;;;1.83;1.20;;;5.40;99.90;;;;;;6210753;23;20479;-83
2022/02/22 00:15:22;;;;;;;3.17;1.20;;;5.50;99.90;;;;;;6210389;23;20862;-83
2022/02/22 00:17:48;;;;;;;2.43;1.60;;;5.40;99.90;;;;;;6209484;23;20383;-83
2022/02/22 00:20:16;;;;;;;3.40;1.13;;;5.50;99.90;;;;;;6210138;23;20386;-83
2022/02/22 00:22:42;;;;;;;6.20;1.40;;;5.40;99.90;;;;;;6208285;23;20414;-83
2022/02/22 00:25:12;;;;;;;6.73;0.87;;;5.40;99.90;;;;;;6210549;23;20474;-83
2022/02/22 00:27:43;;;;;;;4.63;1.50;;;5.40;99.90;;;;;;6211307;23;20793;-83
2022/02/22 00:30:10;;;;;;;4.73;1.20;;;5.40;99.90;;;;;;6211291;23;20565;-82
2022/02/22 00:32:39;;;;;;;6.23;1.20;;;5.40;99.90;;;;;;6211750;23;20393;-84
2022/02/22 00:35:09;;;;;;;3.03;1.20;;;5.40;99.90;;;;;;6212401;23;20965;-83
2022/02/22 00:37:35;;;;;;;2.60;2.40;;;5.40;99.90;;;;;;6211677;23;20972;-83
2022/02/22 00:40:04;;;;;;;1.53;0.90;;;5.40;99.90;;;;;;6214382;23;20755;-83
2022/02/22 00:42:29;;;;;;;2.70;0.60;;;5.50;99.90;;;;;;6212295;23;20159;-83
2022/02/22 00:44:55;;;;;;;4.23;0.90;;;5.60;99.90;;;;;;6209618;23;20401;-83
2022/02/22 00:47:21;;;;;;;3.23;1.03;;;5.50;99.90;;;;;;6209124;23;20159;-84
2022/02/22 00:49:46;;;;;;;5.20;1.07;;;5.40;99.90;;;;;;6208943;23;20195;-83
2022/02/22 00:52:12;;;;;;;9.10;1.30;;;5.40;99.90;;;;;;6208916;23;20160;-84
2022/02/22 00:54:38;;;;;;;3.77;0.90;;;5.40;99.90;;;;;;6206378;23;20335;-83
2022/02/22 00:57:04;;;;;;;2.97;0.90;;;5.50;99.90;;;;;;6207744;23;20159;-83
2022/02/22 00:59:30;;;;;;;2.93;1.17;;;5.50;99.90;;;;;;6207954;23;20485;-84
2022/02/22 01:01:55;;;;;;;6.57;1.53;;;5.60;99.90;;;;;;6208848;23;20502;-83
2022/02/22 01:04:21;;;;;;;3.30;0.80;;;5.60;99.90;;;;;;6209136;23;20244;-83
2022/02/22 01:06:47;;;;;;;1.50;1.13;;;5.60;99.90;;;;;;6210991;23;20251;-83
2022/02/22 01:09:14;;;;;;;2.70;0.80;;;5.60;99.90;;;;;;6207679;23;20479;-82
2022/02/22 01:11:42;;;;;;;1.67;0.53;;;5.70;99.90;;;;;;6207604;23;20162;-82
2022/02/22 01:14:11;;;;;;;7.40;1.53;;;5.70;99.90;;;;;;6210904;23;20554;-82
2022/02/22 01:16:37;;;;;;;2.90;0.90;;;5.70;99.90;;;;;;6207996;23;20387;-82
2022/02/22 01:19:03;;;;;;;4.83;1.40;;;5.70;99.90;;;;;;6208579;23;20922;-82
2022/02/22 01:21:32;;;;;;;5.90;2.30;;;5.70;99.90;;;;;;6210817;23;20176;-82
2022/02/22 01:24:17;;;;;;;2.53;1.33;;;5.70;99.90;;;;;;6214767;22;20855;-83
2022/02/22 01:26:43;;;;;;;1.27;0.80;;;5.60;99.90;;;;;;6209363;23;20382;-82
2022/02/22 01:29:09;;;;;;;2.83;1.03;;;5.60;99.90;;;;;;6208232;23;20453;-83
2022/02/22 01:31:34;;;;;;;4.83;1.00;;;5.60;99.90;;;;;;6208197;23;20475;-83
2022/02/22 01:34:00;;;;;;;2.47;1.13;;;5.60;99.90;;;;;;6213587;22;20598;-82
2022/02/22 01:36:27;;;;;;;4.43;1.33;;;5.60;99.90;;;;;;6213448;23;20618;-83
2022/02/22 01:39:12;;;;;;;3.20;1.00;;;5.60;99.90;;;;;;6209570;23;20642;-82
2022/02/22 01:41:40;;;;;;;3.20;1.07;;;5.70;99.90;;;;;;6209518;23;20391;-81
2022/02/22 01:44:06;;;;;;;8.37;1.30;;;5.70;99.90;;;;;;6207600;23;20383;-83
2022/02/22 01:46:31;;;;;;;2.90;1.23;;;5.70;99.90;;;;;;6210484;23;20770;-83
2022/02/22 01:49:00;;;;;;;3.83;0.93;;;5.70;99.90;;;;;;6209300;23;20566;-83
2022/02/22 01:51:29;;;;;;;5.03;0.87;;;5.70;99.90;;;;;;6207449;23;20294;-83
2022/02/22 01:53:54;;;;;;;3.23;1.23;;;5.60;99.90;;;;;;6208201;23;20400;-83
2022/02/22 01:56:22;;;;;;;1.90;1.00;;;5.50;99.90;;;;;;6209250;23;20971;-83
2022/02/22 01:58:51;;;;;;;4.10;1.17;;;5.40;99.90;;;;;;6208171;23;20270;-83
2022/02/22 02:01:17;;;;;;;2.30;0.90;;;5.40;99.90;;;;;;6207638;23;20402;-83
2022/02/22 02:03:45;;;;;;;2.07;0.90;;;5.40;99.90;;;;;;6208764;23;20403;-83
2022/02/22 02:06:11;;;;;;;3.13;1.10;;;5.50;99.90;;;;;;6210280;23;20567;-83
2022/02/22 02:08:44;;;;;;;3.03;1.00;;;5.50;99.90;;;;;;6211880;23;20518;-83
2022/02/22 02:11:10;;;;;;;4.30;1.07;;;5.50;99.90;;;;;;6212357;23;20848;-83
2022/02/22 02:13:41;;;;;;;4.00;1.37;;;5.50;99.90;;;;;;6209833;23;20503;-83
2022/02/22 02:16:10;;;;;;;1.90;1.30;;;5.50;99.90;;;;;;6210674;23;20386;-84
2022/02/22 02:18:36;;;;;;;2.70;1.07;;;5.50;99.90;;;;;;6211438;23;20452;-84
2022/02/22 02:21:27;;;;;;;4.43;1.60;;;5.50;99.90;;;;;;6214502;22;20403;-84
2022/02/22 02:23:53;;;;;;;2.70;0.93;;;5.40;99.90;;;;;;6215120;22;20401;-84
2022/02/22 02:26:22;;;;;;;4.33;1.10;;;5.30;99.90;;;;;;6216356;22;20419;-83
2022/02/22 02:28:48;;;;;;;1.20;1.10;;;5.20;99.90;;;;;;6215477;22;20619;-83
2022/02/22 02:31:13;;;;;;;3.43;1.50;;;5.20;99.90;;;;;;6215229;22;20859;-82
2022/02/22 02:33:41;;;;;;;4.17;1.43;;;5.00;99.90;;;;;;6216750;22;20256;-82
2022/02/22 02:36:07;;;;;;;2.53;1.33;;;5.10;99.90;;;;;;6213206;22;20161;-83
2022/02/22 02:38:33;;;;;;;5.27;1.33;;;5.10;99.90;;;;;;6218353;22;20404;-83
2022/02/22 02:40:58;;;;;;;4.00;1.23;;;5.10;99.90;;;;;;6218457;22;20242;-83
2022/02/22 02:43:24;;;;;;;1.63;0.70;;;5.00;99.90;;;;;;6219606;22;20163;-84
2022/02/22 02:45:52;;;;;;;3.13;1.10;;;4.90;99.90;;;;;;6218335;22;20151;-83
2022/02/22 02:48:18;;;;;;;2.50;0.93;;;4.80;99.90;;;;;;6215831;22;20272;-83
2022/02/22 02:50:45;;;;;;;3.63;1.07;;;4.70;99.90;;;;;;6220499;22;20496;-83
2022/02/22 02:53:24;;;;;;;1.70;1.00;;;4.60;99.90;;;;;;6217423;22;20156;-83
2022/02/22 02:55:50;;;;;;;2.07;1.23;;;4.70;99.90;;;;;;6217953;22;20400;-83
2022/02/22 02:58:31;;;;;;;6.73;1.10;;;4.60;99.90;;;;;;6217377;22;20383;-83
2022/02/22 03:00:56;;;;;;;2.10;1.03;;;4.60;99.90;;;;;;6215426;22;20162;-84
2022/02/22 03:03:22;;;;;;;3.40;1.50;;;4.50;99.90;;;;;;6217058;22;20895;-84
2022/02/22 03:05:48;;;;;;;1.63;1.03;;;4.50;99.90;;;;;;6216287;22;20163;-84
2022/02/22 03:08:13;;;;;;;1.90;1.33;;;4.60;99.90;;;;;;6217118;22;20440;-84
2022/02/22 03:10:39;;;;;;;5.43;1.90;;;4.50;99.90;;;;;;6219512;22;20555;-84
2022/02/22 03:13:05;;;;;;;3.67;1.30;;;4.50;99.90;;;;;;6217678;22;20237;-84
2022/02/22 03:15:33;;;;;;;3.17;1.27;;;4.50;99.90;;;;;;6217603;22;20540;-84
2022/02/22 03:17:59;;;;;;;5.03;1.70;;;4.50;99.90;;;;;;6216960;22;20667;-84
2022/02/22 03:20:25;;;;;;;4.90;1.37;;;4.50;99.90;;;;;;6218367;22;20419;-84
2022/02/22 03:22:53;;;;;;;3.93;1.27;;;4.50;99.90;;;;;;6219787;23;20442;-85
2022/02/22 03:25:28;;;;;;;2.70;1.30;;;4.50;99.90;;;;;;6223445;23;20162;-84
2022/02/22 03:27:54;;;;;;;4.20;1.70;;;4.40;99.90;;;;;;6222633;23;20504;-83
2022/02/22 03:30:20;;;;;;;5.37;1.60;;;4.50;99.90;;;;;;6212528;23;20945;-83
2022/02/22 03:32:56;;;;;;;4.27;1.40;;;4.40;99.90;;;;;;6211707;23;20378;-83
2022/02/22 03:35:21;;;;;;;3.07;1.87;;;4.40;99.90;;;;;;6210297;23;20508;-83
2022/02/22 03:37:47;;;;;;;5.00;1.30;;;4.40;99.90;;;;;;6210874;23;20893;-83
2022/02/22 03:40:13;;;;;;;2.60;1.20;;;4.30;99.90;;;;;;6213912;23;20159;-82
2022/02/22 03:42:43;;;;;;;5.90;1.23;;;4.50;99.90;;;;;;6212940;23;20167;-83
2022/02/22 03:45:11;;;;;;;4.83;1.10;;;4.40;99.90;;;;;;6212985;23;20155;-84
2022/02/22 03:47:38;;;;;;;2.60;1.23;;;4.40;99.90;;;;;;6211868;23;20900;-84
2022/02/22 03:50:08;;;;;;;3.43;1.50;;;4.50;99.90;;;;;;6211573;23;20393;-84
2022/02/22 03:52:38;;;;;;;2.63;1.27;;;4.50;99.90;;;;;;6212760;23;20848;-83
2022/02/22 03:55:05;;;;;;;6.20;1.40;;;4.40;99.90;;;;;;6211914;23;20796;-84
2022/02/22 03:57:32;;;;;;;3.10;1.73;;;4.40;99.90;;;;;;6211441;23;20395;-83
2022/02/22 03:59:58;;;;;;;5.47;2.03;;;4.50;99.90;;;;;;6211773;23;20444;-84
2022/02/22 04:02:23;;;;;;;5.97;2.00;;;4.50;99.90;;;;;;6208116;23;21015;-84
2022/02/22 04:04:49;;;;;;;3.90;1.50;;;4.50;99.90;;;;;;6210931;23;20160;-84
2022/02/22 04:07:15;;;;;;;3.37;1.97;;;4.50;99.90;;;;;;6213699;23;20162;-83
2022/02/22 04:09:41;;;;;;;3.03;1.20;;;4.60;99.90;;;;;;6214552;23;20653;-83
2022/02/22 04:12:07;;;;;;;2.70;1.30;;;4.50;99.90;;;;;;6214044;23;20502;-83
2022/02/22 04:14:33;;;;;;;7.20;2.10;;;4.50;99.90;;;;;;6213040;23;20178;-83
2022/02/22 04:16:59;;;;;;;3.77;1.50;;;4.50;99.90;;;;;;6212015;23;20393;-83
2022/02/22 04:19:24;;;;;;;3.13;2.40;;;4.50;99.90;;;;;;6210884;23;20387;-83
2022/02/22 04:21:50;;;;;;;5.33;2.13;;;4.50;99.90;;;;;;6210653;23;20635;-83
2022/02/22 04:24:16;;;;;;;3.93;1.67;;;4.60;99.90;;;;;;6212435;23;20367;-84
2022/02/22 04:26:42;;;;;;;4.30;1.50;;;4.60;99.90;;;;;;6212434;23;20202;-84
2022/02/22 04:29:08;;;;;;;3.23;2.07;;;4.70;99.90;;;;;;6210489;23;20199;-85
2022/02/22 04:31:38;;;;;;;4.50;1.60;;;4.70;99.90;;;;;;6211699;23;20151;-84
2022/02/22 04:34:05;;;;;;;2.77;1.50;;;4.70;99.90;;;;;;6211587;23;20158;-83
2022/02/22 04:36:31;;;;;;;5.67;1.70;;;4.80;99.90;;;;;;6210644;23;20382;-83
2022/02/22 04:38:57;;;;;;;5.83;1.70;;;4.80;99.90;;;;;;6212484;23;20511;-83
2022/02/22 04:41:23;;;;;;;2.43;1.47;;;4.80;99.90;;;;;;6212765;23;20411;-83
2022/02/22 04:43:48;;;;;;;4.87;2.40;;;4.70;99.90;;;;;;6212245;23;20387;-84
2022/02/22 04:46:14;;;;;;;3.00;1.67;;;4.70;99.90;;;;;;6210892;23;20167;-83
2022/02/22 04:49:09;;;;;;;2.60;2.10;;;4.60;99.90;;;;;;6212271;23;20194;-83
2022/02/22 04:51:42;;;;;;;4.13;1.80;;;4.60;99.90;;;;;;6210960;23;20166;-84
2022/02/22 04:54:08;;;;;;;2.30;1.73;;;4.50;99.90;;;;;;6211386;23;20817;-84
2022/02/22 04:56:34;;;;;;;6.93;2.23;;;4.40;99.90;;;;;;6210755;23;20397;-82
2022/02/22 04:59:00;;;;;;;2.30;1.40;;;4.30;99.90;;;;;;6212683;23;20398;-82
2022/02/22 05:01:26;;;;;;;6.20;1.80;;;4.30;99.90;;;;;;6209557;23;20158;-82
2022/02/22 05:03:52;;;;;;;1.43;1.33;;;4.30;99.90;;;;;;6212958;23;20239;-83
2022/02/22 05:06:17;;;;;;;7.63;2.30;;;4.30;99.90;;;;;;6213408;23;20603;-84
2022/02/22 05:08:46;;;;;;;8.07;1.50;;;4.20;99.90;;;;;;6210225;23;20194;-83
2022/02/22 05:11:11;;;;;;;3.23;1.70;;;4.20;99.90;;;;;;6209696;23;20162;-84
2022/02/22 05:13:37;;;;;;;2.77;1.70;;;4.20;99.90;;;;;;6214723;22;20398;-84
2022/02/22 05:16:04;;;;;;;2.90;1.90;;;4.00;99.90;;;;;;6211124;23;20472;-84
2022/02/22 05:18:30;;;;;;;4.10;1.50;;;4.00;99.90;;;;;;6212320;23;20273;-84
2022/02/22 05:20:56;;;;;;;3.43;1.80;;;4.10;99.90;;;;;;6212260;22;20752;-84
2022/02/22 05:23:23;;;;;;;4.73;1.37;;;4.10;99.90;;;;;;6214901;22;20451;-83
2022/02/22 05:25:49;;;;;;;4.40;2.10;;;4.00;99.90;;;;;;6214981;22;20503;-84
2022/02/22 05:28:15;;;;;;;3.70;2.07;;;4.00;99.90;;;;;;6214989;22;20437;-84
2022/02/22 05:30:41;;;;;;;4.17;1.67;;;4.00;99.90;;;;;;6212487;22;20381;-84
2022/02/22 05:33:07;;;;;;;2.37;1.83;;;3.90;99.90;;;;;;6215940;22;20154;-86
2022/02/22 05:35:32;;;;;;;4.80;2.33;;;3.90;99.90;;;;;;6216080;22;20158;-85
2022/02/22 05:37:58;;;;;;;3.87;1.90;;;3.80;99.90;;;;;;6215748;22;20862;-84
2022/02/22 05:40:25;;;;;;;3.80;1.90;;;3.80;99.90;;;;;;6218142;22;20184;-85
2022/02/22 05:42:53;;;;;;;3.30;1.50;;;3.80;99.90;;;;;;6217510;22;20393;-86
2022/02/22 05:45:23;;;;;;;3.60;1.80;;;3.80;99.90;;;;;;6220016;22;20389;-86
2022/02/22 05:47:49;;;;;;;5.13;1.93;;;3.70;99.90;;;;;;6216365;22;20393;-85
2022/02/22 05:50:33;;;;;;;2.93;1.67;;;3.70;99.90;;;;;;6217695;22;20817;-86
2022/02/22 05:52:59;;;;;;;6.07;2.20;;;3.70;99.90;;;;;;6217783;22;20160;-86
2022/02/22 05:55:27;;;;;;;4.60;2.20;;;3.80;99.90;;;;;;6217106;22;20385;-86
2022/02/22 05:57:54;;;;;;;3.40;1.60;;;3.70;99.90;;;;;;6190016;22;20197;-86
2022/02/22 06:00:21;;;;;;;3.27;1.87;;;3.80;99.90;;;;;;6193139;22;20529;-87
2022/02/22 06:02:48;;;;;;;3.80;1.83;;;3.90;99.90;;;;;;6214705;22;20401;-86
2022/02/22 06:05:15;;;;;;;5.50;2.13;;;3.90;99.90;;;;;;6215925;22;20400;-86
2022/02/22 06:07:40;;;;;;;6.30;2.10;;;3.90;99.90;;;;;;6218156;22;20389;-88
2022/02/22 06:10:07;;;;;;;5.70;2.47;;;3.80;99.90;;;;;;6218269;22;20729;-86
2022/02/22 06:12:33;;;;;;;6.57;2.50;;;3.80;99.90;;;;;;6213983;22;20154;-87
2022/02/22 06:15:00;;;;;;;4.90;1.90;;;3.80;99.90;;;;;;6216864;22;20404;-86
2022/02/22 06:17:25;;;;;;;6.40;2.90;;;3.80;99.90;;;;;;6220656;22;20393;-85
2022/02/22 06:19:51;;;;;;;5.10;2.30;;;3.80;99.90;;;;;;6217786;22;20385;-85
2022/02/22 06:22:18;;;;;;;2.90;2.17;;;3.80;99.90;;;;;;6220170;23;20412;-85
2022/02/22 06:24:43;;;;;;;5.60;1.90;;;3.80;99.90;;;;;;6211098;23;20390;-85
2022/02/22 06:27:09;;;;;;;3.83;2.23;;;3.80;99.90;;;;;;6209644;23;20390;-85
2022/02/22 06:29:35;;;;;;;4.90;2.33;;;3.70;99.90;;;;;;6214088;23;20233;-86
2022/02/22 06:32:16;;;;;;;;;;;;;;;;;;;;;
2022/02/22 06:34:42;;;;;;;5.67;1.90;;;3.80;99.90;;;;;;6213996;23;20388;-85
2022/02/22 06:37:17;;;;;;;4.23;2.27;;;3.70;99.90;;;;;;6210810;23;20381;-86
2022/02/22 06:40:06;;;;;;;7.53;2.10;;;3.80;99.90;;;;;;6210942;23;20446;-85
2022/02/22 06:43:08;;;;;;;6.03;2.17;;;3.70;99.90;;;;;;6213568;23;20392;-85
2022/02/22 06:45:39;;;;;;;5.70;2.70;;;3.70;99.90;;;;;;6200763;23;20467;-85
2022/02/22 06:48:30;;;;;;;4.83;2.83;;;3.80;99.90;;;;;;6209236;23;20440;-85
2022/02/22 06:51:07;;;;;;;2.93;2.17;;;3.80;99.90;;;;;;6214989;23;20509;-86
2022/02/22 06:54:02;;;;;;;7.37;2.53;;;3.80;99.90;;;;;;6214183;23;20402;-86
2022/02/22 06:57:13;;;;;;;5.30;2.30;;;3.80;99.90;;;;;;6198923;23;20397;-85
2022/02/22 06:59:59;;;;;;;4.97;2.60;;;3.80;99.90;;;;;;6212653;23;20378;-86
2022/02/22 07:02:32;;;;;;;6.20;1.63;;;3.70;99.90;;;;;;6220461;22;20382;-86
2022/02/22 07:04:58;;;;;;;6.33;2.27;;;3.70;99.90;;;;;;6211259;23;20386;-85
2022/02/22 07:07:25;;;;;;;10.30;3.13;;;3.70;99.90;;;;;;6211850;23;20374;-83
2022/02/22 07:09:59;;;;;;;7.30;3.20;;;3.70;99.90;;;;;;6213687;23;20195;-86
2022/02/22 07:12:25;;;;;;;8.83;3.47;;;3.70;99.90;;;;;;6214775;23;20381;-84
2022/02/22 07:14:53;;;;;;;5.40;2.80;;;3.80;99.90;;;;;;6220707;23;20950;-85
2022/02/22 07:17:22;;;;;;;6.20;2.90;;;3.80;99.90;;;;;;6221854;23;20366;-86
2022/02/22 07:19:55;;;;;;;5.07;3.00;;;3.90;99.90;;;;;;6219643;23;20390;-88
2022/02/22 07:22:21;;;;;;;5.50;2.47;;;4.00;99.90;;;;;;6219038;23;20492;-87
2022/02/22 07:24:56;;;;;;;1.70;1.30;;;4.00;99.90;;;;;;6219603;23;20821;-88
2022/02/22 07:27:22;;;;;;;2.33;1.53;;;4.10;99.90;;;;;;6223150;23;20382;-86
2022/02/22 07:29:48;;;;;;;8.17;4.50;;;4.10;99.90;;;;;;6219826;23;20437;-86
2022/02/22 07:32:17;;;;;;;9.03;4.60;;;4.10;99.90;;;;;;6223280;23;20159;-87
2022/02/22 07:34:52;;;;;;;5.27;3.90;;;4.10;99.90;;;;;;6224546;23;20262;-86
2022/02/22 07:38:05;;;;;;;10.10;4.17;;;4.10;99.90;;;;;;6223029;22;20461;-86
2022/02/22 07:40:48;;;;;;;7.13;3.83;;;4.30;99.90;;;;;;6223505;22;21086;-87
2022/02/22 07:43:24;;;;;;;5.50;3.13;;;4.30;99.90;;;;;;6222179;23;20382;-86
2022/02/22 07:45:57;;;;;;;7.00;4.20;;;4.30;99.90;;;;;;6220036;23;20390;-86
2022/02/22 07:51:18;;;;;;;8.13;3.40;;;4.40;99.90;;;;;;6232324;22;20375;-84
2022/02/22 07:53:49;;;;;;;20.60;15.50;;;4.50;99.90;;;;;;6225049;23;20383;-85
2022/02/22 07:56:16;;;;;;;8.97;3.50;;;4.60;99.90;;;;;;6220083;23;20420;-83
2022/02/22 07:58:42;;;;;;;5.00;2.90;;;4.90;99.90;;;;;;6219068;23;20877;-84
2022/02/22 08:01:11;;;;;;;3.23;2.90;;;5.20;99.90;;;;;;6219231;23;20506;-85
2022/02/22 08:03:37;;;;;;;7.13;2.60;;;5.50;99.90;;;;;;6220521;23;20395;-85
2022/02/22 08:06:03;;;;;;;4.27;2.50;;;5.50;99.90;;;;;;6220351;23;20672;-85
2022/02/22 08:08:29;;;;;;;5.03;2.83;;;5.50;99.90;;;;;;6219575;23;21314;-85
2022/02/22 08:10:55;;;;;;;4.03;2.77;;;5.40;99.90;;;;;;6217601;23;20749;-84
2022/02/22 08:13:20;;;;;;;5.40;2.23;;;5.30;99.90;;;;;;6217248;23;20505;-84
2022/02/22 08:15:56;;;;;;;7.63;2.30;;;5.30;99.90;;;;;;6225568;23;20159;-86
2022/02/22 08:18:31;;;;;;;6.53;2.20;;;5.40;99.90;;;;;;6225913;23;20602;-86
2022/02/22 08:20:59;;;;;;;6.90;2.63;;;5.60;99.90;;;;;;6219237;23;20762;-84
2022/02/22 08:23:27;;;;;;;5.47;2.50;;;5.80;99.90;;;;;;6213541;23;20473;-84
2022/02/22 08:25:53;;;;;;;5.33;2.57;;;5.90;99.90;;;;;;6214384;23;21019;-85
2022/02/22 08:28:18;;;;;;;4.20;2.40;;;6.00;99.90;;;;;;6211511;23;20440;-85
2022/02/22 08:30:44;;;;;;;3.97;3.33;;;5.80;99.90;;;;;;6211322;23;20907;-84
2022/02/22 08:33:10;;;;;;;8.37;2.60;;;5.80;99.90;;;;;;6213887;23;20165;-84
2022/02/22 08:35:36;;;;;;;3.10;2.37;;;5.90;99.90;;;;;;6212858;23;20365;-84
2022/02/22 08:38:02;;;;;;;3.53;2.17;;;6.30;99.90;;;;;;6210991;23;20156;-84
2022/02/22 08:40:27;;;;;;;3.43;2.50;;;6.60;99.90;;;;;;6207767;23;20693;-84
2022/02/22 08:42:53;;;;;;;5.47;2.93;;;6.60;99.90;;;;;;6212226;23;20395;-83
2022/02/22 08:45:19;;;;;;;3.77;2.60;;;6.70;99.90;;;;;;6214522;23;20150;-84
2022/02/22 08:47:45;;;;;;;4.90;2.60;;;6.90;99.90;;;;;;6212641;23;20163;-83
2022/02/22 08:50:11;;;;;;;5.20;2.20;;;7.00;99.90;;;;;;6215335;23;20907;-84
2022/02/22 08:52:37;;;;;;;4.50;2.40;;;7.10;99.90;;;;;;6210854;23;20182;-84
2022/02/22 08:55:06;;;;;;;4.57;1.90;;;7.00;99.90;;;;;;6186925;23;20163;-85
2022/02/22 08:57:34;;;;;;;6.63;3.00;;;6.60;99.90;;;;;;6211016;23;21204;-84
2022/02/22 09:00:01;;;;;;;3.70;1.80;;;6.70;99.90;;;;;;6215555;23;20880;-84
2022/02/22 09:02:29;;;;;;;6.97;1.90;;;6.80;99.90;;;;;;6222887;23;20481;-84
2022/02/22 09:04:55;;;;;;;5.57;1.60;;;6.70;99.90;;;;;;6224340;23;20874;-84
2022/02/22 09:07:25;;;;;;;7.70;1.93;;;6.70;99.90;;;;;;6220576;23;20399;-84
2022/02/22 09:09:50;;;;;;;6.50;2.27;;;6.70;99.90;;;;;;6221551;23;20187;-83
2022/02/22 09:12:16;;;;;;;5.50;1.87;;;6.80;99.90;;;;;;6220560;23;20385;-83
2022/02/22 09:14:42;;;;;;;4.43;1.70;;;6.80;99.90;;;;;;6222999;23;20624;-83
2022/02/22 09:17:07;;;;;;;6.03;1.90;;;6.70;99.90;;;;;;6211505;23;20573;-83
2022/02/22 09:19:33;;;;;;;3.30;1.57;;;6.80;99.90;;;;;;6213173;23;20241;-84
2022/02/22 09:21:59;;;;;;;7.97;1.70;;;6.80;99.90;;;;;;6216821;23;20506;-85
2022/02/22 09:24:25;;;;;;;2.30;1.30;;;6.70;99.90;;;;;;6213341;23;20159;-83
2022/02/22 09:26:50;;;;;;;2.70;1.27;;;6.80;99.90;;;;;;6212144;23;20162;-83
2022/02/22 09:29:16;;;;;;;3.80;1.70;;;6.70;99.90;;;;;;6210016;23;20194;-84
2022/02/22 09:31:42;;;;;;;2.60;1.50;;;6.80;99.90;;;;;;6210023;23;20652;-83
2022/02/22 09:34:08;;;;;;;3.70;1.60;;;6.80;99.90;;;;;;6211005;23;20158;-84
2022/02/22 09:36:34;;;;;;;3.80;1.63;;;6.80;99.90;;;;;;6213708;23;20254;-84
2022/02/22 09:39:08;;;;;;;2.70;1.70;;;6.70;99.90;;;;;;6210418;23;21036;-84
2022/02/22 09:41:40;;;;;;;5.20;2.03;;;6.90;99.90;;;;;;6213053;23;20276;-83
2022/02/22 09:44:17;;;;;;;4.27;1.40;;;6.80;99.90;;;;;;6210682;23;20829;-85
2022/02/22 09:46:43;;;;;;;5.47;1.23;;;6.80;99.90;;;;;;6212779;23;20394;-84
2022/02/22 09:49:10;;;;;;;2.10;1.40;;;6.90;99.90;;;;;;6210200;23;20604;-84
2022/02/22 09:51:36;;;;;;;3.57;1.33;;;6.90;99.90;;;;;;6214967;23;20385;-84
2022/02/22 09:54:02;;;;;;;5.50;1.50;;;7.00;99.90;;;;;;6211686;23;20423;-84
2022/02/22 09:56:27;;;;;;;6.90;2.07;;;7.00;99.90;;;;;;6212256;23;20155;-86
2022/02/22 09:59:02;;;;;;;5.00;1.50;;;7.00;99.90;;;;;;6216640;23;20240;-87
2022/02/22 10:02:01;;;;;;;2.67;1.77;;;7.00;99.90;;;;;;6215795;23;20777;-88
2022/02/22 10:04:27;;;;;;;3.60;1.57;;;7.20;99.90;;;;;;6211621;23;20385;-83
2022/02/22 10:07:03;;;;;;;5.13;1.37;;;7.30;99.90;;;;;;6217367;23;21375;-84
2022/02/22 10:09:29;;;;;;;2.87;1.37;;;7.40;99.90;;;;;;6212018;23;20186;-84
2022/02/22 10:11:55;;;;;;;3.83;2.20;;;7.40;99.90;;;;;;6210482;23;20520;-84
2022/02/22 10:14:22;;;;;;;6.07;1.73;;;7.40;99.90;;;;;;6211298;23;20494;-84
2022/02/22 10:16:54;;;;;;;2.70;1.27;;;7.30;99.90;;;;;;6211843;23;20236;-83
2022/02/22 10:19:23;;;;;;;2.30;1.47;;;7.30;99.90;;;;;;6212166;23;20510;-83
2022/02/22 10:21:56;;;;;;;4.50;1.93;;;7.30;99.90;;;;;;6213528;23;20433;-84
2022/02/22 10:24:23;;;;;;;2.90;1.70;;;7.30;99.90;;;;;;6210024;23;20401;-84
2022/02/22 10:27:03;;;;;;;2.60;1.40;;;7.40;99.90;;;;;;6212595;23;20710;-84
2022/02/22 10:29:30;;;;;;;3.00;1.50;;;7.50;99.90;;;;;;6209216;23;20634;-83
2022/02/22 10:31:56;;;;;;;6.23;1.70;;;7.40;99.90;;;;;;6206843;23;20884;-84
2022/02/22 10:34:32;;;;;;;5.90;1.60;;;7.40;99.90;;;;;;6205443;23;20923;-85
2022/02/22 10:37:07;;;;;;;5.90;2.00;;;7.40;99.90;;;;;;6213945;22;20390;-84
2022/02/22 10:39:33;;;;;;;5.20;1.77;;;7.70;99.90;;;;;;6211689;23;20387;-85
2022/02/22 10:41:59;;;;;;;7.57;2.07;;;7.90;99.90;;;;;;6211022;23;20962;-86
2022/02/22 10:44:35;;;;;;;2.60;1.30;;;8.20;99.90;;;;;;6215127;23;20813;-85
2022/02/22 10:47:07;;;;;;;3.33;1.40;;;8.40;99.90;;;;;;6207913;23;20151;-86
2022/02/22 10:49:37;;;;;;;5.17;2.30;;;8.50;99.90;;;;;;6210581;23;20450;-86
2022/02/22 10:52:05;;;;;;;4.83;2.73;;;8.80;99.90;;;;;;6209853;23;21035;-85
2022/02/22 10:54:31;;;;;;;3.57;2.50;;;9.00;99.90;;;;;;6210253;23;20393;-87
2022/02/22 10:56:57;;;;;;;6.37;2.27;;;9.00;99.90;;;;;;6212562;23;20397;-87
2022/02/22 10:59:25;;;;;;;5.17;1.67;;;9.40;99.90;;;;;;6216278;23;20537;-87
2022/02/22 11:01:53;;;;;;;4.30;2.20;;;9.40;99.90;;;;;;6218866;23;20162;-85
2022/02/22 11:04:19;;;;;;;2.93;1.20;;;9.20;99.90;;;;;;6211789;23;20807;-86
2022/02/22 11:06:47;;;;;;;3.53;1.30;;;8.80;99.90;;;;;;6207516;23;20561;-86
2022/02/22 11:09:16;;;;;;;3.93;1.57;;;8.70;99.90;;;;;;6214483;23;20528;-86
2022/02/22 11:12:03;;;;;;;5.80;2.07;;;8.70;99.90;;;;;;6208422;23;20505;-86
2022/02/22 11:14:34;;;;;;;2.47;1.33;;;8.70;99.90;;;;;;6187969;23;20825;-86
2022/02/22 11:17:13;;;;;;;2.50;1.50;;;8.70;99.90;;;;;;6209256;23;20428;-85
2022/02/22 11:19:40;;;;;;;5.13;1.83;;;8.60;99.90;;;;;;6208072;23;20951;-85
2022/02/22 11:22:19;;;;;;;6.97;1.93;;;8.60;99.90;;;;;;6209988;23;20415;-85
2022/02/22 11:24:49;;;;;;;3.10;1.37;;;8.40;99.90;;;;;;6214390;23;20399;-85
2022/02/22 11:27:27;;;;;;;4.70;2.40;;;8.50;99.90;;;;;;6211309;23;20392;-85
2022/02/22 11:30:07;;;;;;;6.93;3.60;;;8.60;99.90;;;;;;6212597;23;20441;-85
2022/02/22 11:32:38;;;;;;;2.80;1.50;;;8.60;99.90;;;;;;6210635;23;20379;-83
2022/02/22 11:35:12;;;;;;;5.30;1.70;;;8.70;99.90;;;;;;6207933;23;21000;-84
2022/02/22 11:37:38;;;;;;;6.07;1.80;;;8.60;99.90;;;;;;6208027;23;20412;-84
2022/02/22 11:40:06;;;;;;;3.10;1.60;;;8.70;99.90;;;;;;6215153;23;20393;-84
2022/02/22 11:42:39;;;;;;;5.40;1.83;;;8.70;99.90;;;;;;6209102;23;20391;-86
2022/02/22 11:45:07;;;;;;;3.93;1.70;;;8.70;99.90;;;;;;6207277;23;20705;-86
2022/02/22 11:47:35;;;;;;;2.17;1.63;;;8.60;99.90;;;;;;6209914;23;20381;-86
2022/02/22 11:50:11;;;;;;;3.60;1.80;;;8.70;99.90;;;;;;6208570;23;20503;-84
2022/02/22 11:52:43;;;;;;;4.83;2.00;;;8.90;99.90;;;;;;6211510;23;20387;-85
2022/02/22 11:55:36;;;;;;;7.20;2.40;;;9.00;99.90;;;;;;6213564;23;20625;-85
2022/02/22 11:58:11;;;;;;;6.13;2.40;;;9.10;99.90;;;;;;6209684;23;20393;-84
2022/02/22 12:00:37;;;;;;;4.60;1.70;;;9.10;99.90;;;;;;6209620;23;20393;-85
2022/02/22 12:03:15;;;;;;;5.30;1.90;;;8.70;99.90;;;;;;6208043;23;20394;-85
2022/02/22 12:06:02;;;;;;;2.27;1.93;;;8.80;99.90;;;;;;6209970;23;20493;-85
2022/02/22 12:08:38;;;;;;;2.60;1.10;;;9.10;99.90;;;;;;6210434;23;20469;-85
2022/02/22 12:11:19;;;;;;;1.90;1.30;;;9.10;99.90;;;;;;6210426;23;20637;-85
2022/02/22 12:13:58;;;;;;;3.07;1.23;;;8.90;99.90;;;;;;6213525;23;20385;-85
2022/02/22 12:16:36;;;;;;;3.33;2.07;;;8.60;99.90;;;;;;6216214;23;20852;-84
2022/02/22 12:19:05;;;;;;;3.43;1.60;;;8.70;99.90;;;;;;6212012;23;20397;-85
2022/02/22 12:21:31;;;;;;;3.20;1.60;;;9.10;99.90;;;;;;6217042;22;20925;-86
2022/02/22 12:23:59;;;;;;;4.23;1.70;;;9.00;99.90;;;;;;6220279;22;20400;-85
2022/02/22 12:26:28;;;;;;;3.73;1.83;;;9.00;99.90;;;;;;6220640;22;20486;-86
2022/02/22 12:29:07;;;;;;;4.60;1.97;;;8.90;99.90;;;;;;6221205;22;20971;-87
2022/02/22 12:31:40;;;;;;;7.03;1.80;;;9.10;99.90;;;;;;6226124;22;20421;-86
2022/02/22 12:34:15;;;;;;;4.67;2.33;;;9.10;99.90;;;;;;6226400;22;20440;-86
2022/02/22 12:36:54;;;;;;;3.23;1.70;;;9.10;99.90;;;;;;6250995;22;20934;-85
2022/02/22 12:39:30;;;;;;;5.57;1.80;;;9.00;99.90;;;;;;6247538;22;20453;-85
2022/02/22 12:41:58;;;;;;;5.10;1.80;;;9.00;99.90;;;;;;6220431;22;20385;-87
2022/02/22 12:44:25;;;;;;;6.00;2.40;;;9.40;99.90;;;;;;6222308;22;21016;-87
2022/02/22 12:46:53;;;;;;;3.63;2.00;;;9.60;99.90;;;;;;6223731;22;20793;-86
2022/02/22 12:49:23;;;;;;;4.40;1.90;;;9.60;99.90;;;;;;6223231;22;20458;-86
2022/02/22 12:54:27;;;;;;;4.10;1.77;;;9.30;99.90;;;;;;6244778;22;20444;-85
2022/02/22 12:56:56;;;;;;;7.77;2.10;;;9.40;99.90;;;;;;6221732;22;20793;-85
2022/02/22 12:59:29;;;;;;;5.17;1.63;;;9.60;99.90;;;;;;6214699;22;20898;-86
2022/02/22 13:02:01;;;;;;;7.27;2.43;;;9.70;99.90;;;;;;6217708;22;20479;-85
2022/02/22 13:04:43;;;;;;;6.90;2.33;;;9.90;99.90;;;;;;6213697;22;20809;-85
2022/02/22 13:07:29;;;;;;;7.00;2.43;;;9.70;99.90;;;;;;6242191;22;20384;-84
2022/02/22 13:10:18;;;;;;;8.57;2.20;;;9.20;99.90;;;;;;6216636;22;20440;-85
2022/02/22 13:12:46;;;;;;;6.33;2.40;;;9.20;99.90;;;;;;6199905;22;20403;-84
2022/02/22 13:15:25;;;;;;;6.50;1.90;;;9.30;99.90;;;;;;6218540;22;20747;-85